Terminal Aerodrome Forecast
Issued by NWS Melbourne, FL

Home | Current Version | Previous Version | Text Only | Print | Product List | Glossary On
Versions: 1 2 3 4 5 6 7 8 9 10 11 12 13 14
668
FTUS42 KMLB 081739
TAFVRB
TAF
KVRB 081739Z 0818/0918 25014G20KT P6SM SCT050 SCT300
     FM090000 23011KT P6SM BKN050
     FM090800 28016G22KT P6SM BKN050
     FM091600 27020G28KT P6SM BKN050=

USA.gov is the U.S. government's official web portal to all federal, state and local government web resources and services.